Time;durP1;ratioP1;P1;durP2;ratioP2;P2;SDS_P1;SDS_P2;PMS_P1;PMS_P2;Temp;Humidity;BMP_temperature;BMP_pressure;BME280_temperature;BME280_humidity;BME280_pressure;Samples;Min_cycle;Max_cycle;Signal;HPM_P1;HPM_P2
2023/04/22 00:01:09;;;;;;;9.02;7.85;;;;;;;6.13;100.00;100667.72;4961979;28;20078;-65
2023/04/22 00:03:34;;;;;;;9.13;7.60;;;;;;;6.11;100.00;100670.22;4953116;28;20031;-65
2023/04/22 00:05:59;;;;;;;9.20;8.02;;;;;;;6.09;100.00;100668.38;4961517;28;20026;-65
2023/04/22 00:08:25;;;;;;;10.57;7.70;;;;;;;6.06;100.00;100673.38;4957363;28;20389;-65
2023/04/22 00:10:50;;;;;;;7.80;7.00;;;;;;;6.00;100.00;100661.94;4951967;28;20476;-65
2023/04/22 00:13:15;;;;;;;9.02;7.40;;;;;;;5.98;100.00;100660.09;4953546;28;20030;-65
2023/04/22 00:15:41;;;;;;;10.27;9.15;;;;;;;5.94;100.00;100656.50;4952620;28;20040;-66
2023/04/22 00:18:12;;;;;;;8.32;7.53;;;;;;;5.92;100.00;100663.25;4954292;28;20022;-65
2023/04/22 00:20:38;;;;;;;7.60;6.80;;;;;;;5.91;100.00;100656.34;4962487;28;20185;-65
2023/04/22 00:23:03;;;;;;;9.02;8.13;;;;;;;5.88;100.00;100657.06;4956073;28;20102;-65
2023/04/22 00:25:28;;;;;;;8.05;7.28;;;;;;;5.88;100.00;100656.22;4968932;28;20505;-65
2023/04/22 00:27:53;;;;;;;8.95;7.70;;;;;;;5.89;100.00;100655.41;4989727;28;20076;-66
2023/04/22 00:30:19;;;;;;;7.50;6.80;;;;;;;5.86;100.00;100658.69;4953965;28;20027;-65
2023/04/22 00:32:44;;;;;;;9.35;7.88;;;;;;;5.83;100.00;100657.69;4953189;28;20027;-65
2023/04/22 00:35:09;;;;;;;9.48;8.57;;;;;;;5.82;100.00;100658.47;4972076;28;20085;-65
2023/04/22 00:37:35;;;;;;;8.70;7.80;;;;;;;5.80;100.00;100657.50;4960353;28;20055;-65
2023/04/22 00:40:00;;;;;;;8.50;7.60;;;;;;;5.79;100.00;100660.91;4967469;28;20038;-65
2023/04/22 00:42:26;;;;;;;7.85;7.15;;;;;;;5.75;100.00;100660.75;4963363;28;20031;-65
2023/04/22 00:44:51;;;;;;;7.85;6.97;;;;;;;5.73;100.00;100661.47;4952420;28;20113;-65
2023/04/22 00:47:17;;;;;;;10.38;7.15;;;;;;;5.71;100.00;100653.69;4966910;28;20037;-65
2023/04/22 00:49:43;;;;;;;8.85;7.95;;;;;;;5.70;100.00;100657.06;4952122;28;20392;-65
2023/04/22 00:52:08;;;;;;;8.73;7.90;;;;;;;5.69;100.00;100663.03;4953485;28;20031;-65
2023/04/22 00:54:35;;;;;;;9.27;7.63;;;;;;;5.68;100.00;100666.41;4952601;28;20023;-65
2023/04/22 00:57:01;;;;;;;8.40;7.43;;;;;;;5.67;100.00;100667.19;4953510;28;20064;-65
2023/04/22 00:59:27;;;;;;;9.13;8.25;;;;;;;5.65;100.00;100661.09;4951942;28;20102;-65
2023/04/22 01:01:52;;;;;;;6.95;6.25;;;;;;;5.67;100.00;100662.06;4954030;28;20480;-65
2023/04/22 01:04:19;;;;;;;7.10;6.47;;;;;;;5.72;100.00;100663.16;4970762;28;20029;-65
2023/04/22 01:06:45;;;;;;;7.65;6.47;;;;;;;5.75;100.00;100665.91;4958823;28;20110;-65
2023/04/22 01:09:11;;;;;;;7.63;6.93;;;;;;;5.77;100.00;100661.69;4951900;28;20026;-65
2023/04/22 01:11:37;;;;;;;7.65;6.95;;;;;;;5.79;100.00;100656.66;4965221;28;20023;-66
2023/04/22 01:14:03;;;;;;;7.25;6.57;;;;;;;5.77;100.00;100650.56;4959964;28;20026;-65
2023/04/22 01:16:30;;;;;;;8.48;7.65;;;;;;;5.79;100.00;100655.75;4969409;28;20121;-66
2023/04/22 01:18:55;;;;;;;8.20;7.40;;;;;;;5.79;100.00;100648.03;4951689;28;20047;-65
2023/04/22 01:21:21;;;;;;;8.55;7.75;;;;;;;5.80;100.00;100647.22;4953166;28;20476;-64
2023/04/22 01:23:47;;;;;;;9.45;8.45;;;;;;;5.79;100.00;100641.22;4952477;28;20475;-65
2023/04/22 01:26:12;;;;;;;8.55;7.80;;;;;;;5.82;100.00;100640.47;4979681;28;20026;-65
2023/04/22 01:28:37;;;;;;;9.93;7.68;;;;;;;5.83;100.00;100642.25;4951876;28;20031;-65
2023/04/22 01:31:03;;;;;;;9.18;8.27;;;;;;;5.84;100.00;100646.56;4963143;28;20048;-65
2023/04/22 01:33:28;;;;;;;8.80;7.65;;;;;;;5.85;100.00;100646.66;4961825;28;20378;-65
2023/04/22 01:35:54;;;;;;;8.52;7.45;;;;;;;5.85;100.00;100644.06;4987943;28;20456;-65
2023/04/22 01:38:19;;;;;;;9.23;8.32;;;;;;;5.88;100.00;100643.34;4986972;28;20026;-65
2023/04/22 01:40:45;;;;;;;8.85;7.95;;;;;;;5.88;100.00;100641.66;4987443;28;20120;-65
2023/04/22 01:43:10;;;;;;;8.07;7.38;;;;;;;5.89;100.00;100642.53;4986366;28;20467;-65
2023/04/22 01:45:35;;;;;;;8.93;8.10;;;;;;;5.91;100.00;100642.59;4986913;28;20018;-65
2023/04/22 01:48:01;;;;;;;8.35;7.65;;;;;;;5.91;100.00;100646.06;4985803;28;20041;-65
2023/04/22 01:50:26;;;;;;;8.70;7.90;;;;;;;5.91;100.00;100640.91;4987433;28;20216;-64
2023/04/22 01:52:52;;;;;;;9.40;8.60;;;;;;;5.92;100.00;100634.97;4986324;28;20112;-65
2023/04/22 01:55:17;;;;;;;9.05;8.30;;;;;;;5.94;100.00;100635.91;4987984;28;20030;-65
2023/04/22 01:57:42;;;;;;;10.43;8.25;;;;;;;5.95;100.00;100636.81;4986820;28;20093;-65
2023/04/22 02:00:08;;;;;;;8.05;7.35;;;;;;;5.97;100.00;100630.91;4987732;28;20026;-65
2023/04/22 02:02:34;;;;;;;7.40;6.80;;;;;;;5.98;100.00;100632.69;4987181;28;20049;-65
2023/04/22 02:04:59;;;;;;;8.85;8.05;;;;;;;5.99;100.00;100631.88;4986682;28;20026;-65
2023/04/22 02:07:25;;;;;;;8.60;7.88;;;;;;;5.99;100.00;100631.00;4986471;28;20034;-65
2023/04/22 02:09:51;;;;;;;9.55;8.55;;;;;;;5.97;100.00;100630.91;4986298;28;20038;-65
2023/04/22 02:12:17;;;;;;;9.02;8.23;;;;;;;5.96;100.00;100624.00;4963530;28;20018;-65
2023/04/22 02:14:42;;;;;;;8.80;8.00;;;;;;;5.98;100.00;100624.97;4974216;28;20085;-65
2023/04/22 02:17:07;;;;;;;9.50;8.70;;;;;;;5.97;100.00;100630.91;4988148;28;20128;-65
2023/04/22 02:19:32;;;;;;;9.02;8.23;;;;;;;5.98;100.00;100627.53;4985900;28;20026;-65
2023/04/22 02:21:58;;;;;;;8.93;8.02;;;;;;;5.98;100.00;100622.41;4987419;28;20018;-65
2023/04/22 02:24:23;;;;;;;8.57;7.78;;;;;;;5.99;100.00;100624.16;4986244;28;20044;-65
2023/04/22 02:26:49;;;;;;;8.05;7.35;;;;;;;6.03;100.00;100627.75;4988040;28;20475;-65
2023/04/22 02:29:15;;;;;;;8.48;7.78;;;;;;;6.06;100.00;100624.50;4986668;28;20022;-65
2023/04/22 02:31:40;;;;;;;8.77;7.95;;;;;;;6.08;100.00;100628.03;4987460;28;20034;-65
2023/04/22 02:34:06;;;;;;;8.35;7.65;;;;;;;6.07;100.00;100615.94;4987355;28;20160;-65
2023/04/22 02:36:33;;;;;;;7.68;6.90;;;;;;;6.08;100.00;100613.44;4986738;28;20019;-65
2023/04/22 02:38:58;;;;;;;8.05;7.25;;;;;;;6.09;100.00;100607.50;4988169;28;20030;-65
2023/04/22 02:41:24;;;;;;;8.35;7.38;;;;;;;6.07;100.00;100616.84;4986927;28;20070;-65
2023/04/22 02:43:49;;;;;;;8.55;7.68;;;;;;;6.00;100.00;100610.50;4987776;28;20030;-65
2023/04/22 02:46:15;;;;;;;8.82;8.02;;;;;;;5.98;100.00;100617.25;4986177;28;20056;-65
2023/04/22 02:48:41;;;;;;;8.48;7.78;;;;;;;5.96;100.00;100617.97;4986538;28;20065;-65
2023/04/22 02:51:06;;;;;;;9.63;8.63;;;;;;;5.92;100.00;100614.38;4984673;28;20514;-65
2023/04/22 02:53:32;;;;;;;9.48;8.68;;;;;;;5.91;100.00;100610.06;4986067;28;20034;-65
2023/04/22 02:55:57;;;;;;;9.75;8.90;;;;;;;5.89;100.00;100611.66;4983677;28;20072;-65
2023/04/22 02:58:25;;;;;;;9.85;8.95;;;;;;;5.89;100.00;100603.94;4985960;28;20053;-65
2023/04/22 03:00:50;;;;;;;9.85;8.95;;;;;;;5.87;100.00;100600.41;4982516;28;20022;-65
2023/04/22 03:03:16;;;;;;;10.15;9.25;;;;;;;5.88;100.00;100609.91;4985448;28;20032;-65
2023/04/22 03:05:41;;;;;;;11.40;9.73;;;;;;;5.88;100.00;100602.19;4981849;28;20081;-65
2023/04/22 03:08:06;;;;;;;10.45;9.45;;;;;;;5.87;100.00;100603.00;4985470;28;20030;-64
2023/04/22 03:10:31;;;;;;;9.90;9.05;;;;;;;5.87;100.00;100601.31;4983828;28;20034;-65
2023/04/22 03:12:57;;;;;;;9.38;8.57;;;;;;;5.87;100.00;100597.84;4985345;28;20030;-65
2023/04/22 03:15:22;;;;;;;10.30;9.40;;;;;;;5.87;100.00;100601.31;4984095;28;20420;-66
2023/04/22 03:17:48;;;;;;;8.88;8.07;;;;;;;5.87;100.00;100592.69;4985404;28;20034;-65
2023/04/22 03:20:13;;;;;;;10.55;9.65;;;;;;;5.87;100.00;100592.69;4984624;28;20536;-65
2023/04/22 03:22:39;;;;;;;9.88;8.90;;;;;;;5.88;100.00;100594.50;4984690;28;20026;-65
2023/04/22 03:25:05;;;;;;;9.95;9.07;;;;;;;5.87;100.00;100585.88;4984870;28;20010;-65
2023/04/22 03:27:32;;;;;;;10.45;9.55;;;;;;;5.88;100.00;100586.78;4987425;28;20147;-65
2023/04/22 03:29:57;;;;;;;10.43;9.50;;;;;;;5.90;100.00;100585.13;4987026;28;20023;-65
2023/04/22 03:32:22;;;;;;;10.10;9.20;;;;;;;5.91;100.00;100575.72;4987741;28;20030;-66
2023/04/22 03:34:48;;;;;;;10.70;9.80;;;;;;;5.91;100.00;100576.63;4990861;28;20030;-65
2023/04/22 03:37:13;;;;;;;10.20;9.18;;;;;;;5.92;100.00;100568.09;4990792;28;20026;-65
2023/04/22 03:39:38;;;;;;;10.20;9.30;;;;;;;5.94;100.00;100574.19;4977893;28;20088;-65
2023/04/22 03:42:04;;;;;;;10.48;9.48;;;;;;;5.95;100.00;100564.78;4970556;28;20027;-65
2023/04/22 03:44:29;;;;;;;9.80;8.90;;;;;;;5.96;100.00;100567.41;4965430;28;20039;-65
2023/04/22 03:46:54;;;;;;;10.73;9.63;;;;;;;5.98;100.00;100563.22;4952485;28;20031;-66
2023/04/22 03:49:20;;;;;;;10.98;9.95;;;;;;;6.00;100.00;100563.31;4965684;28;20141;-65
2023/04/22 03:51:45;;;;;;;10.70;9.70;;;;;;;6.01;100.00;100565.94;4953654;28;20038;-65
2023/04/22 03:54:10;;;;;;;10.00;9.10;;;;;;;6.01;100.00;100554.75;4953885;28;20105;-65
2023/04/22 03:56:36;;;;;;;10.45;9.52;;;;;;;6.03;100.00;100552.28;4963624;28;20058;-65
2023/04/22 03:59:01;;;;;;;11.13;10.13;;;;;;;6.03;100.00;100557.44;4967865;28;20042;-65
2023/04/22 04:01:26;;;;;;;10.27;9.38;;;;;;;6.04;100.00;100554.03;4953338;28;20049;-65
2023/04/22 04:03:51;;;;;;;10.93;9.93;;;;;;;6.03;100.00;100553.16;4966616;28;20036;-65
2023/04/22 04:06:17;;;;;;;11.50;10.40;;;;;;;6.04;100.00;100557.50;4953609;28;20491;-65
2023/04/22 04:08:42;;;;;;;11.48;10.38;;;;;;;6.05;100.00;100554.13;4952748;28;20031;-65
2023/04/22 04:11:08;;;;;;;11.25;10.27;;;;;;;6.05;100.00;100545.50;4963705;28;20019;-65
2023/04/22 04:13:34;;;;;;;11.57;10.48;;;;;;;6.05;100.00;100540.34;4954342;28;20066;-65
2023/04/22 04:16:00;;;;;;;11.77;10.57;;;;;;;6.06;100.00;100543.03;4963330;28;20075;-65
2023/04/22 04:18:25;;;;;;;11.93;9.98;;;;;;;6.08;100.00;100553.41;4959252;28;20031;-65
2023/04/22 04:20:51;;;;;;;11.40;10.40;;;;;;;6.10;100.00;100542.34;4958536;28;20031;-65
2023/04/22 04:23:16;;;;;;;11.52;10.48;;;;;;;6.12;100.00;100538.16;4950312;28;20038;-65
2023/04/22 04:25:42;;;;;;;10.95;9.52;;;;;;;6.12;100.00;100545.00;4970948;28;20049;-65
2023/04/22 04:28:10;;;;;;;10.93;9.93;;;;;;;6.11;100.00;100546.72;4988274;28;20053;-65
2023/04/22 04:30:35;;;;;;;10.80;9.80;;;;;;;6.10;100.00;100539.78;4988531;28;20030;-65
2023/04/22 04:33:05;;;;;;;10.65;9.65;;;;;;;6.12;100.00;100537.28;4987459;28;20034;-65
2023/04/22 04:35:35;;;;;;;11.73;10.52;;;;;;;6.10;100.00;100538.91;4987522;28;20026;-65
2023/04/22 04:38:01;;;;;;;11.52;10.52;;;;;;;6.06;100.00;100547.31;4987102;28;20073;-65
2023/04/22 04:40:28;;;;;;;11.13;10.10;;;;;;;6.04;100.00;100547.22;4988219;28;20418;-65
2023/04/22 04:42:54;;;;;;;11.35;10.25;;;;;;;6.03;100.00;100552.28;4987507;28;20022;-65
2023/04/22 04:45:21;;;;;;;12.07;10.98;;;;;;;6.01;100.00;100540.22;4987778;28;20025;-65
2023/04/22 04:47:46;;;;;;;11.90;10.80;;;;;;;6.01;100.00;100539.31;4988270;28;20467;-65
2023/04/22 04:50:11;;;;;;;12.65;11.45;;;;;;;6.00;100.00;100540.16;4989617;28;20040;-65
2023/04/22 04:52:37;;;;;;;12.52;11.45;;;;;;;5.98;100.00;100540.09;4987146;28;20031;-65
2023/04/22 04:55:02;;;;;;;13.15;10.90;;;;;;;5.99;100.00;100549.56;4989020;28;20022;-64
2023/04/22 04:57:28;;;;;;;13.00;11.90;;;;;;;5.99;100.00;100549.56;4974953;28;20266;-65
2023/04/22 04:59:53;;;;;;;12.55;11.30;;;;;;;6.00;100.00;100546.19;4988750;28;20352;-65
2023/04/22 05:02:18;;;;;;;13.27;12.00;;;;;;;6.03;100.00;100547.16;4987388;28;20557;-65
2023/04/22 05:04:43;;;;;;;13.32;12.02;;;;;;;6.06;100.00;100552.44;4970991;28;20066;-65
2023/04/22 05:07:09;;;;;;;13.02;11.85;;;;;;;6.07;100.00;100549.94;4970420;28;20030;-65
2023/04/22 05:09:36;;;;;;;14.32;12.93;;;;;;;6.09;100.00;100550.00;4969707;28;20344;-65
2023/04/22 05:12:02;;;;;;;13.05;11.85;;;;;;;6.12;100.00;100542.41;4965493;28;20464;-65
2023/04/22 05:14:28;;;;;;;15.48;13.98;;;;;;;6.12;100.00;100547.56;4960761;28;20027;-65
2023/04/22 05:16:53;;;;;;;15.85;14.35;;;;;;;6.16;100.00;100551.16;4969959;28;20038;-65
2023/04/22 05:19:18;;;;;;;14.50;13.18;;;;;;;6.17;100.00;100535.78;4959164;28;20312;-65
2023/04/22 05:21:44;;;;;;;14.48;13.07;;;;;;;6.20;100.00;100535.94;4967080;28;20030;-65
2023/04/22 05:24:09;;;;;;;14.80;13.50;;;;;;;6.20;100.00;100535.94;4958393;28;20506;-65
2023/04/22 05:26:35;;;;;;;14.88;13.40;;;;;;;6.23;100.00;100541.22;4980699;28;20034;-65
2023/04/22 05:29:00;;;;;;;14.80;13.40;;;;;;;6.28;100.00;100538.00;4955792;28;20030;-65
2023/04/22 05:31:25;;;;;;;15.50;14.10;;;;;;;6.31;100.00;100549.31;4972946;28;20090;-65
2023/04/22 05:33:51;;;;;;;16.15;14.65;;;;;;;6.35;100.00;100540.88;4959470;28;20066;-65
2023/04/22 05:36:16;;;;;;;16.23;14.73;;;;;;;6.42;100.00;100541.19;4973185;28;20037;-65
2023/04/22 05:38:41;;;;;;;16.77;15.25;;;;;;;6.47;100.00;100540.56;4976734;28;20022;-66
2023/04/22 05:41:06;;;;;;;15.52;14.02;;;;;;;6.57;100.00;100540.94;4973271;28;20054;-65
2023/04/22 05:43:32;;;;;;;16.10;14.65;;;;;;;6.64;100.00;100537.81;4974236;28;20033;-65
2023/04/22 05:45:57;;;;;;;16.90;15.30;;;;;;;6.70;100.00;100532.97;4966038;28;20026;-65
2023/04/22 05:48:22;;;;;;;17.10;15.55;;;;;;;6.79;100.00;100534.16;4973751;28;20038;-65
2023/04/22 05:50:48;;;;;;;17.42;15.93;;;;;;;6.90;100.00;100544.91;4964954;28;20031;-65
2023/04/22 05:53:13;;;;;;;19.23;17.52;;;;;;;7.01;100.00;100537.66;4972218;28;20434;-65
2023/04/22 05:55:38;;;;;;;18.55;16.88;;;;;;;7.10;100.00;100532.88;4960784;28;20032;-65
2023/04/22 05:58:03;;;;;;;18.98;17.30;;;;;;;7.17;100.00;100534.91;4979187;28;20019;-66
2023/04/22 06:00:29;;;;;;;19.35;17.60;;;;;;;7.23;100.00;100535.97;4963006;28;20039;-65
2023/04/22 06:02:54;;;;;;;19.25;17.38;;;;;;;7.27;100.00;100530.09;4973013;28;20084;-65
2023/04/22 06:05:19;;;;;;;20.02;18.23;;;;;;;7.31;100.00;100538.03;4956182;28;20476;-65
2023/04/22 06:07:45;;;;;;;20.45;18.55;;;;;;;7.40;100.00;100531.47;4970825;28;20030;-65
2023/04/22 06:10:10;;;;;;;20.77;18.85;;;;;;;7.50;100.00;100528.44;4962613;28;20030;-65
2023/04/22 06:12:35;;;;;;;20.73;18.77;;;;;;;7.62;100.00;100528.06;4973710;28;20037;-65
2023/04/22 06:15:01;;;;;;;20.13;18.33;;;;;;;7.75;100.00;100526.84;4963952;28;20049;-65
2023/04/22 06:17:26;;;;;;;20.05;18.33;;;;;;;7.85;100.00;100533.22;4968793;28;20122;-66
2023/04/22 06:19:51;;;;;;;19.50;17.70;;;;;;;7.92;100.00;100527.47;4969230;28;20174;-65
2023/04/22 06:22:16;;;;;;;19.77;17.95;;;;;;;8.00;100.00;100525.19;4978001;28;20133;-63
2023/04/22 06:24:42;;;;;;;18.45;16.85;;;;;;;8.11;100.00;100523.00;4970470;28;20101;-63
2023/04/22 06:27:07;;;;;;;19.40;17.70;;;;;;;8.27;100.00;100526.16;4977404;28;20467;-63
2023/04/22 06:29:32;;;;;;;18.33;16.80;;;;;;;8.45;100.00;100518.19;4958719;28;20035;-63
2023/04/22 06:31:58;;;;;;;18.23;16.73;;;;;;;8.64;100.00;100519.75;4955913;28;20055;-64
2023/04/22 06:34:23;;;;;;;18.60;17.00;;;;;;;8.79;100.00;100526.28;4958404;28;20039;-63
2023/04/22 06:36:50;;;;;;;17.95;16.15;;;;;;;8.90;100.00;100531.81;4954343;28;20073;-64
2023/04/22 06:39:15;;;;;;;17.63;16.13;;;;;;;9.01;100.00;100529.59;4962138;28;20038;-64
2023/04/22 06:41:43;;;;;;;17.55;15.95;;;;;;;9.03;100.00;100524.47;4951865;28;20534;-64
2023/04/22 06:44:08;;;;;;;18.63;16.88;;;;;;;9.06;100.00;100519.41;4958747;28;20424;-63
2023/04/22 06:46:33;;;;;;;17.90;16.40;;;;;;;9.16;100.00;100512.81;4957500;28;20034;-64
2023/04/22 06:48:58;;;;;;;17.63;15.88;;;;;;;9.43;100.00;100506.75;4954258;28;20062;-64
2023/04/22 06:51:24;;;;;;;17.65;16.02;;;;;;;9.72;100.00;100504.19;4962307;28;20499;-64
2023/04/22 06:53:49;;;;;;;16.67;15.27;;;;;;;9.97;100.00;100504.94;4968650;28;20031;-64
2023/04/22 06:56:14;;;;;;;15.43;14.02;;;;;;;10.11;100.00;100507.06;4962462;28;20685;-64
2023/04/22 06:58:40;;;;;;;15.32;13.98;;;;;;;10.20;100.00;100508.19;4963783;28;20155;-64
2023/04/22 07:01:05;;;;;;;14.95;13.55;;;;;;;10.30;100.00;100508.44;4957956;28;20027;-64
2023/04/22 07:03:30;;;;;;;15.38;14.00;;;;;;;10.44;100.00;100501.94;4959395;28;20122;-64
2023/04/22 07:05:56;;;;;;;14.00;12.70;;;;;;;10.65;100.00;100505.09;4953636;28;20495;-64
2023/04/22 07:08:21;;;;;;;14.40;13.20;;;;;;;10.87;100.00;100506.50;4961588;28;20030;-64
2023/04/22 07:10:46;;;;;;;14.88;13.57;;;;;;;11.07;100.00;100508.72;4961419;28;20121;-64
2023/04/22 07:13:11;;;;;;;14.90;13.50;;;;;;;11.31;100.00;100506.69;4963546;28;20050;-64
2023/04/22 07:15:37;;;;;;;14.10;12.70;;;;;;;11.53;100.00;100503.75;4967068;28;20150;-64
2023/04/22 07:18:02;;;;;;;13.85;12.45;;;;;;;11.78;100.00;100493.06;4963135;28;20452;-64
2023/04/22 07:20:28;;;;;;;12.70;11.60;;;;;;;11.79;100.00;100497.38;4965586;28;20035;-64
2023/04/22 07:22:53;;;;;;;13.05;11.90;;;;;;;11.82;100.00;100494.84;4967779;28;20271;-65
2023/04/22 07:25:18;;;;;;;13.25;12.15;;;;;;;11.59;100.00;100492.63;4971688;28;20014;-64
2023/04/22 07:27:43;;;;;;;13.93;12.55;;;;;;;11.55;100.00;100501.19;4991527;28;20026;-64
2023/04/22 07:30:10;;;;;;;13.43;12.32;;;;;;;11.56;100.00;100502.06;4990259;28;20471;-65
2023/04/22 07:32:35;;;;;;;14.07;12.85;;;;;;;11.69;100.00;100496.34;4990907;28;20034;-64
2023/04/22 07:35:00;;;;;;;14.60;13.38;;;;;;;11.93;100.00;100502.88;4989575;28;20402;-64
2023/04/22 07:37:26;;;;;;;13.55;12.35;;;;;;;12.13;100.00;100497.25;4990660;28;20034;-64
2023/04/22 07:39:51;;;;;;;12.63;11.60;;;;;;;12.34;100.00;100499.38;4988254;28;20026;-64
2023/04/22 07:42:17;;;;;;;12.48;11.27;;;;;;;12.49;100.00;100495.31;4990413;28;20113;-64
2023/04/22 07:44:42;;;;;;;11.80;10.57;;;;;;;12.65;100.00;100504.28;4983013;28;20082;-64
2023/04/22 07:47:07;;;;;;;13.43;12.23;;;;;;;12.89;100.00;100508.19;4976931;28;20037;-64
2023/04/22 07:49:33;;;;;;;11.48;10.27;;;;;;;12.99;100.00;100510.94;4975259;28;20031;-65
2023/04/22 07:51:58;;;;;;;11.68;10.68;;;;;;;12.91;100.00;100509.09;4971687;28;20026;-64
2023/04/22 07:54:24;;;;;;;10.80;9.90;;;;;;;12.91;100.00;100509.09;4975511;28;20109;-64
2023/04/22 07:56:49;;;;;;;11.40;10.30;;;;;;;12.90;100.00;100488.25;4960227;28;20039;-64
2023/04/22 07:59:15;;;;;;;11.70;10.70;;;;;;;13.07;100.00;100480.72;4955885;28;20020;-66
2023/04/22 08:01:40;;;;;;;10.88;9.88;;;;;;;13.27;100.00;100488.84;4953071;28;20035;-64
2023/04/22 08:04:06;;;;;;;10.25;9.32;;;;;;;13.45;100.00;100477.81;4954025;28;20494;-64
2023/04/22 08:06:31;;;;;;;11.20;10.10;;;;;;;13.63;100.00;100473.75;4960058;28;20035;-64
2023/04/22 08:08:57;;;;;;;10.18;9.23;;;;;;;13.64;100.00;100474.63;4967487;28;20476;-64
2023/04/22 08:11:22;;;;;;;9.98;9.13;;;;;;;13.57;100.00;100471.06;4960587;28;20027;-64
2023/04/22 08:13:47;;;;;;;10.38;9.38;;;;;;;13.64;100.00;100470.28;4967820;28;20727;-65
2023/04/22 08:16:13;;;;;;;11.07;9.98;;;;;;;13.84;100.00;100467.06;4960562;28;20047;-65
2023/04/22 08:18:38;;;;;;;10.52;9.57;;;;;;;14.02;100.00;100469.03;4960935;28;20452;-64
2023/04/22 08:21:03;;;;;;;9.90;9.00;;;;;;;14.25;100.00;100471.00;4957323;28;20035;-65
2023/04/22 08:23:29;;;;;;;9.52;8.73;;;;;;;14.48;100.00;100469.53;4959738;28;20031;-65
2023/04/22 08:25:54;;;;;;;8.73;8.02;;;;;;;14.60;100.00;100463.53;4961230;28;20144;-64
2023/04/22 08:28:19;;;;;;;9.63;8.60;;;;;;;14.56;100.00;100460.03;4960100;28;20487;-64
2023/04/22 08:30:44;;;;;;;8.77;7.97;;;;;;;14.63;100.00;100454.00;4966839;28;20027;-65
2023/04/22 08:33:10;;;;;;;8.40;7.60;;;;;;;14.56;100.00;100453.94;4959653;28;20034;-65
2023/04/22 08:35:36;;;;;;;9.43;8.57;;;;;;;14.45;100.00;100459.03;4968374;28;20066;-65
2023/04/22 08:38:01;;;;;;;8.63;7.93;;;;;;;14.43;100.00;100458.19;4973942;28;20026;-65
2023/04/22 08:40:28;;;;;;;9.63;8.07;;;;;;;14.61;100.00;100460.06;4983449;28;20032;-65
2023/04/22 08:42:54;;;;;;;9.05;8.10;;;;;;;14.73;100.00;100459.31;4974362;28;20026;-65
2023/04/22 08:45:20;;;;;;;8.80;7.53;;;;;;;14.94;100.00;100440.41;4978081;28;20053;-64
2023/04/22 08:47:47;;;;;;;7.80;7.10;;;;;;;15.29;100.00;100430.19;4980431;28;20546;-64
2023/04/22 08:50:12;;;;;;;8.50;7.22;;;;;;;15.46;100.00;100432.88;4986621;28;20045;-64
2023/04/22 08:52:38;;;;;;;7.00;6.28;;;;;;;15.71;100.00;100422.53;4978187;28;20023;-64
2023/04/22 08:55:03;;;;;;;6.85;6.25;;;;;;;15.88;100.00;100416.53;4986389;28;20092;-64
2023/04/22 08:57:30;;;;;;;7.68;6.28;;;;;;;15.99;100.00;100417.44;4983175;28;20038;-65
2023/04/22 08:59:55;;;;;;;7.05;5.95;;;;;;;16.01;97.74;100425.31;4980058;28;20490;-65
2023/04/22 09:02:23;;;;;;;6.88;6.20;;;;;;;16.11;99.68;100421.84;4968681;28;20034;-64
2023/04/22 09:04:51;;;;;;;7.55;6.72;;;;;;;16.10;95.78;100416.63;4969417;28;20035;-65
2023/04/22 09:07:25;;;;;;;7.25;6.03;;;;;;;16.11;97.13;100420.97;4965577;28;20059;-64
2023/04/22 09:09:53;;;;;;;6.28;5.70;;;;;;;16.04;95.10;100426.19;4961514;28;20522;-65
2023/04/22 09:12:18;;;;;;;6.35;5.75;;;;;;;16.01;98.30;100425.31;4974410;28;20109;-64
2023/04/22 09:14:44;;;;;;;6.78;6.18;;;;;;;16.00;100.00;100424.44;4967881;28;20129;-65
2023/04/22 09:17:10;;;;;;;6.35;5.75;;;;;;;15.95;96.51;100421.78;4972042;28;20034;-65
2023/04/22 09:19:35;;;;;;;6.63;6.03;;;;;;;16.08;100.00;100422.69;4974899;28;20030;-65
2023/04/22 09:22:01;;;;;;;6.50;5.90;;;;;;;16.11;96.10;100418.34;4966335;28;20054;-65
2023/04/22 09:24:26;;;;;;;7.05;6.30;;;;;;;16.13;100.00;100419.22;4970063;28;20037;-64
2023/04/22 09:26:54;;;;;;;6.97;6.03;;;;;;;16.25;94.84;100410.53;4965200;28;20558;-66
2023/04/22 09:29:19;;;;;;;7.03;6.32;;;;;;;16.18;91.34;100413.16;4968486;28;20023;-65
2023/04/22 09:31:51;;;;;;;6.47;5.80;;;;;;;16.31;96.42;100411.44;4960035;28;20364;-66
2023/04/22 09:34:16;;;;;;;7.15;6.45;;;;;;;16.38;93.16;100414.03;4974173;28;20030;-65
2023/04/22 09:36:44;;;;;;;7.05;6.35;;;;;;;16.33;95.41;100401.81;4978423;28;20360;-66
2023/04/22 09:39:10;;;;;;;6.70;5.78;;;;;;;16.56;97.44;100406.22;4983249;28;20045;-66
2023/04/22 09:41:39;;;;;;;6.78;5.78;;;;;;;16.82;94.82;100403.59;4957734;28;20454;-66
2023/04/22 09:44:14;;;;;;;6.32;5.72;;;;;;;16.96;91.28;100396.59;4966418;28;20425;-66
2023/04/22 09:46:42;;;;;;;6.45;5.68;;;;;;;17.09;91.69;100401.81;4964066;28;20023;-66
2023/04/22 09:49:07;;;;;;;6.10;5.60;;;;;;;17.33;91.26;100407.88;4966418;28;20093;-66
2023/04/22 09:51:33;;;;;;;6.22;5.18;;;;;;;17.62;93.24;100415.63;4974394;28;20026;-65
2023/04/22 09:54:03;;;;;;;5.20;4.80;;;;;;;17.65;87.12;100422.59;4963540;28;20023;-66
2023/04/22 09:56:51;;;;;;;7.13;5.80;;;;;;;17.66;88.98;100413.88;4975607;28;20101;-66
2023/04/22 09:59:23;;;;;;;5.72;5.22;;;;;;;17.87;87.03;100409.41;4983692;28;20386;-66
2023/04/22 10:01:51;;;;;;;5.30;4.47;;;;;;;17.83;86.13;100410.28;4979580;28;20423;-66
2023/04/22 10:04:20;;;;;;;5.43;4.75;;;;;;;17.85;83.29;100414.66;4969224;28;20050;-66
2023/04/22 10:06:46;;;;;;;5.65;4.93;;;;;;;17.89;85.42;100420.75;4983945;28;20356;-66
2023/04/22 10:09:12;;;;;;;8.13;5.43;;;;;;;17.90;85.93;100412.00;4980512;28;20031;-66
2023/04/22 10:11:39;;;;;;;6.40;5.80;;;;;;;17.57;84.38;100413.91;4983211;28;20033;-66
2023/04/22 10:14:04;;;;;;;6.47;5.85;;;;;;;17.59;86.18;100412.16;4988251;28;20052;-66
2023/04/22 10:16:32;;;;;;;8.88;5.55;;;;;;;17.75;87.29;100411.19;4974159;28;20062;-66
2023/04/22 10:19:00;;;;;;;6.10;5.50;;;;;;;17.75;85.44;100419.06;4978939;28;20054;-66
2023/04/22 10:21:29;;;;;;;5.55;5.05;;;;;;;17.83;85.61;100431.25;4985104;28;20018;-67
2023/04/22 10:23:57;;;;;;;5.85;5.30;;;;;;;17.88;85.31;100427.72;4988179;28;20088;-67
2023/04/22 10:26:40;;;;;;;6.20;5.70;;;;;;;17.71;83.05;100422.59;4987155;28;20368;-67
2023/04/22 10:29:06;;;;;;;6.80;5.68;;;;;;;17.69;85.83;100418.22;4978569;28;20513;-67
2023/04/22 10:31:32;;;;;;;5.78;5.20;;;;;;;17.56;82.61;100415.66;4985026;28;20490;-67
2023/04/22 10:34:12;;;;;;;6.25;5.15;;;;;;;17.53;87.67;100413.06;4986361;28;20018;-67
2023/04/22 10:37:03;;;;;;;5.55;4.72;;;;;;;17.53;82.01;100418.28;4979054;28;20031;-66
2023/04/22 10:39:29;;;;;;;4.88;4.22;;;;;;;17.46;82.24;100419.19;4980896;28;20035;-67
2023/04/22 10:42:05;;;;;;;5.03;4.55;;;;;;;17.52;81.80;100412.16;4985625;28;20034;-66
2023/04/22 10:44:51;;;;;;;4.88;3.70;;;;;;;17.58;83.76;100400.81;4971839;28;20076;-67
2023/04/22 10:47:26;;;;;;;4.28;3.92;;;;;;;17.59;84.06;100393.81;4973957;28;20512;-67
2023/04/22 10:50:08;;;;;;;4.65;3.63;;;;;;;17.58;84.74;100394.69;4963868;28;20018;-67
2023/04/22 10:52:33;;;;;;;6.90;3.58;;;;;;;17.35;80.03;100403.50;4984639;28;20041;-67
2023/04/22 10:55:00;;;;;;;4.00;3.60;;;;;;;17.21;80.99;100399.19;4987831;28;20045;-67
2023/04/22 10:57:35;;;;;;;4.82;3.63;;;;;;;17.06;82.10;100402.69;4986014;28;20418;-67
2023/04/22 11:00:14;;;;;;;4.38;3.40;;;;;;;16.99;84.06;100411.41;4987887;28;20105;-67
2023/04/22 11:02:41;;;;;;;4.30;3.88;;;;;;;16.72;82.52;100419.28;4963786;28;20037;-66
2023/04/22 11:05:21;;;;;;;3.85;3.53;;;;;;;16.56;84.90;100414.06;4986300;28;20250;-66
2023/04/22 11:07:48;;;;;;;3.90;3.30;;;;;;;16.42;84.63;100415.78;4951261;28;20038;-67
2023/04/22 11:10:31;;;;;;;4.28;3.88;;;;;;;16.31;86.47;100413.16;4961231;28;20534;-67
2023/04/22 11:12:56;;;;;;;5.70;3.72;;;;;;;16.23;86.90;100415.75;4961956;28;20354;-66